createdAt,value
2022-12-20T00:01:35.667Z,40.17
2022-12-20T00:04:06.720Z,34.50
2022-12-20T00:06:36.612Z,41.28
2022-12-20T00:09:08.950Z,32.53
2022-12-20T00:11:40.007Z,41.22
2022-12-20T00:14:08.610Z,37.30
2022-12-20T00:16:37.931Z,37.72
2022-12-20T00:19:08.423Z,33.35
2022-12-20T00:21:37.372Z,37.95
2022-12-20T00:24:08.094Z,36.85
2022-12-20T00:26:38.144Z,40.03
2022-12-20T00:29:07.186Z,35.35
2022-12-20T00:31:35.991Z,38.00
2022-12-20T00:34:04.669Z,32.65
2022-12-20T00:36:34.319Z,40.35
2022-12-20T00:39:03.096Z,33.80
2022-12-20T00:41:34.708Z,30.55
2022-12-20T00:44:03.223Z,36.75
2022-12-20T00:46:33.213Z,36.35
2022-12-20T00:49:01.528Z,35.30
2022-12-20T00:51:33.095Z,33.92
2022-12-20T00:54:01.016Z,37.78
2022-12-20T00:56:29.067Z,35.60
2022-12-20T00:59:00.378Z,33.25
2022-12-20T01:01:31.753Z,33.45
2022-12-20T01:04:00.439Z,35.67
2022-12-20T01:06:29.795Z,36.38
2022-12-20T01:08:58.688Z,35.55
2022-12-20T01:11:29.524Z,35.00
2022-12-20T01:14:03.906Z,39.30
2022-12-20T01:16:34.628Z,36.47
2022-12-20T01:19:02.888Z,35.50
2022-12-20T01:21:31.395Z,38.05
2022-12-20T01:23:59.558Z,34.78
2022-12-20T01:26:30.601Z,35.87
2022-12-20T01:29:01.745Z,32.75
2022-12-20T01:31:32.323Z,35.50
2022-12-20T01:34:01.282Z,37.53
2022-12-20T01:36:32.159Z,36.37
2022-12-20T01:39:02.041Z,35.43
2022-12-20T01:41:31.617Z,37.00
2022-12-20T01:44:03.484Z,31.60
2022-12-20T01:46:33.598Z,39.43
2022-12-20T01:49:06.139Z,39.83
2022-12-20T01:51:38.237Z,38.10
2022-12-20T01:54:11.648Z,36.88
2022-12-20T01:56:42.175Z,29.33
2022-12-20T01:59:13.872Z,37.70
2022-12-20T02:01:43.658Z,38.28
2022-12-20T02:04:11.831Z,39.83
2022-12-20T02:06:39.951Z,37.60
2022-12-20T02:09:09.095Z,31.20
2022-12-20T02:11:58.740Z,34.10
2022-12-20T02:14:40.837Z,35.13
2022-12-20T02:17:16.266Z,39.97
2022-12-20T02:20:08.527Z,40.90
2022-12-20T02:22:53.756Z,36.33
2022-12-20T02:25:44.170Z,35.20
2022-12-20T02:28:28.058Z,37.60
2022-12-20T02:31:01.742Z,38.90
2022-12-20T02:33:30.407Z,34.10
2022-12-20T02:35:58.373Z,32.20
2022-12-20T02:38:30.907Z,41.90
2022-12-20T02:41:03.394Z,36.23
2022-12-20T02:43:51.748Z,37.38
2022-12-20T02:46:24.755Z,35.97
2022-12-20T02:48:54.510Z,43.63
2022-12-20T02:51:24.624Z,34.33
2022-12-20T02:53:53.241Z,37.75
2022-12-20T02:56:26.288Z,45.97
2022-12-20T02:59:00.380Z,41.93
2022-12-20T03:01:33.087Z,43.93
2022-12-20T03:04:02.798Z,35.17
2022-12-20T03:06:31.254Z,39.07
2022-12-20T03:08:59.649Z,42.78
2022-12-20T03:11:27.703Z,36.70
2022-12-20T03:13:55.699Z,43.73
2022-12-20T03:16:23.686Z,40.97
2022-12-20T03:18:53.741Z,48.30
2022-12-20T03:21:21.765Z,39.30
2022-12-20T03:23:50.152Z,43.10
2022-12-20T03:26:18.164Z,37.40
2022-12-20T03:28:46.132Z,40.13
2022-12-20T03:31:14.189Z,39.17
2022-12-20T03:33:42.493Z,41.63
2022-12-20T03:36:12.256Z,38.93
2022-12-20T03:38:40.216Z,43.23
2022-12-20T03:41:08.325Z,44.23
2022-12-20T03:43:36.739Z,39.20
2022-12-20T03:46:04.925Z,40.53
2022-12-20T03:48:33.491Z,41.15
2022-12-20T03:51:01.509Z,41.50
2022-12-20T03:53:31.264Z,45.77
2022-12-20T03:55:59.365Z,38.17
2022-12-20T03:58:27.950Z,47.30
2022-12-20T04:00:57.410Z,43.23
2022-12-20T04:03:25.921Z,44.93
2022-12-20T04:05:53.997Z,52.70
2022-12-20T04:08:22.484Z,40.20
2022-12-20T04:11:09.167Z,47.17
2022-12-20T04:13:37.743Z,45.87
2022-12-20T04:16:06.214Z,51.23
2022-12-20T04:18:34.421Z,38.70
2022-12-20T04:21:02.614Z,43.80
2022-12-20T04:23:30.969Z,42.43
2022-12-20T04:26:00.557Z,40.10
2022-12-20T04:28:28.940Z,45.20
2022-12-20T04:30:57.562Z,48.73
2022-12-20T04:33:26.496Z,38.00
2022-12-20T04:35:55.210Z,43.27
2022-12-20T04:38:24.759Z,42.87
2022-12-20T04:40:54.003Z,47.97
2022-12-20T04:43:25.259Z,47.70
2022-12-20T04:45:56.363Z,47.90
2022-12-20T04:51:15.882Z,42.63
2022-12-20T04:53:49.648Z,47.43
2022-12-20T04:56:19.539Z,48.17
2022-12-20T04:58:50.987Z,42.23
2022-12-20T05:01:20.114Z,44.07
2022-12-20T05:03:49.692Z,48.63
2022-12-20T05:06:17.988Z,44.07
2022-12-20T05:08:46.653Z,50.77
2022-12-20T05:11:15.164Z,46.57
2022-12-20T05:13:43.370Z,56.60
2022-12-20T05:16:15.702Z,54.63
2022-12-20T05:18:49.470Z,46.07
2022-12-20T05:21:38.879Z,39.87
2022-12-20T05:24:47.361Z,44.37
2022-12-20T05:30:58.164Z,45.00
2022-12-20T08:12:27.317Z,45.37
2022-12-20T08:22:28.805Z,41.83
2022-12-20T08:33:19.423Z,43.53
2022-12-20T08:39:34.199Z,38.37
2022-12-20T09:31:35.129Z,43.87
2022-12-20T09:34:18.328Z,38.27
2022-12-20T09:59:52.314Z,39.60
2022-12-20T10:02:56.569Z,32.00
2022-12-20T11:33:58.453Z,40.20
2022-12-20T11:36:34.249Z,39.10
2022-12-20T11:39:11.653Z,38.73
2022-12-20T11:41:51.938Z,39.93
2022-12-20T11:44:33.458Z,40.17
2022-12-20T11:47:33.856Z,44.20
2022-12-20T11:50:22.525Z,35.83
2022-12-20T11:52:59.149Z,37.30
2022-12-20T11:55:30.433Z,32.77
2022-12-20T11:58:30.574Z,36.97
2022-12-20T12:01:05.773Z,36.70
2022-12-20T12:03:39.395Z,33.83
2022-12-20T12:06:34.650Z,34.73
2022-12-20T12:09:14.578Z,32.30
2022-12-20T12:14:53.624Z,37.07
2022-12-20T12:17:31.477Z,32.30
2022-12-20T12:20:19.402Z,35.07
2022-12-20T12:22:55.601Z,33.47
2022-12-20T12:25:24.952Z,36.77
2022-12-20T12:27:54.177Z,38.20
2022-12-20T12:30:27.032Z,33.87
2022-12-20T12:33:03.337Z,38.77
2022-12-20T12:35:56.073Z,33.70
2022-12-20T12:38:46.341Z,38.33
2022-12-20T12:41:32.906Z,34.60
2022-12-20T12:44:33.287Z,39.97
2022-12-20T12:47:22.585Z,36.33
2022-12-20T13:14:54.270Z,42.13
2022-12-20T13:17:50.605Z,37.97
2022-12-20T13:20:25.166Z,34.47
2022-12-20T13:23:17.275Z,32.10
2022-12-20T13:25:48.117Z,42.43
2022-12-20T13:28:47.396Z,35.50
2022-12-20T13:31:35.462Z,42.50
2022-12-20T13:34:04.236Z,43.47
2022-12-20T13:36:36.608Z,40.80
2022-12-20T13:39:35.672Z,38.90
2022-12-20T13:42:24.403Z,37.47
2022-12-20T13:44:55.579Z,39.63
2022-12-20T13:47:47.237Z,38.97
2022-12-20T13:50:40.687Z,39.10
2022-12-20T13:53:19.004Z,38.17
2022-12-20T13:55:47.443Z,45.23
2022-12-20T13:58:19.397Z,37.83
2022-12-20T14:00:48.743Z,31.90
2022-12-20T14:03:25.724Z,34.33
2022-12-20T14:05:59.816Z,38.03
2022-12-20T14:08:31.053Z,41.43
2022-12-20T14:11:11.056Z,39.80
2022-12-20T14:13:39.975Z,33.60
2022-12-20T14:16:15.837Z,43.30
2022-12-20T14:18:50.488Z,37.00
2022-12-20T14:21:20.134Z,36.47
2022-12-20T14:23:51.326Z,42.27
2022-12-20T14:26:25.987Z,41.53
2022-12-20T14:28:57.226Z,35.93
2022-12-20T14:31:27.925Z,33.63
2022-12-20T14:34:13.617Z,41.67
2022-12-20T14:36:44.742Z,36.23
2022-12-20T14:39:26.639Z,34.50
2022-12-20T14:41:59.960Z,32.00
2022-12-20T14:44:30.472Z,41.83
2022-12-20T14:47:00.292Z,38.67
2022-12-20T14:49:32.439Z,32.17
2022-12-20T14:52:14.687Z,37.60
2022-12-20T14:57:41.618Z,36.27
2022-12-20T15:00:17.781Z,33.53
2022-12-20T15:02:51.904Z,36.80
2022-12-20T15:05:49.652Z,42.40
2022-12-20T15:08:20.618Z,36.07
2022-12-20T15:10:53.444Z,34.90
2022-12-20T15:13:23.966Z,39.47
2022-12-20T15:15:52.730Z,34.37
2022-12-20T15:18:23.244Z,35.23
2022-12-20T15:21:02.218Z,34.60
2022-12-20T15:23:31.756Z,35.90
2022-12-20T15:26:00.502Z,43.93
2022-12-20T15:28:29.319Z,38.37
2022-12-20T15:30:57.913Z,38.00
2022-12-20T15:33:29.140Z,36.93
2022-12-20T15:36:01.335Z,36.53
2022-12-20T15:38:54.807Z,41.23
2022-12-20T15:41:22.009Z,36.20
2022-12-20T15:43:53.301Z,34.50
2022-12-20T15:46:21.392Z,39.83
2022-12-20T15:48:49.933Z,37.60
2022-12-20T15:51:25.828Z,41.73
2022-12-20T15:53:54.497Z,36.80
2022-12-20T15:56:24.359Z,36.37
2022-12-20T15:58:53.015Z,38.60
2022-12-20T16:01:24.129Z,41.17
2022-12-20T16:03:52.800Z,37.23
2022-12-20T16:06:23.176Z,32.37
2022-12-20T16:08:51.607Z,33.00
2022-12-20T16:11:22.672Z,36.57
2022-12-20T16:13:51.946Z,38.50
2022-12-20T16:16:21.978Z,31.83
2022-12-20T16:18:52.076Z,36.37
2022-12-20T16:21:23.279Z,35.90
2022-12-20T16:23:52.010Z,34.97
2022-12-20T16:26:22.329Z,31.77
2022-12-20T16:28:51.548Z,29.50
2022-12-20T16:31:25.559Z,32.07
2022-12-20T16:33:54.425Z,36.53
2022-12-20T16:36:24.532Z,36.03
2022-12-20T16:38:54.112Z,33.53
2022-12-20T16:41:24.980Z,31.33
2022-12-20T16:43:53.059Z,27.60
2022-12-20T16:46:23.943Z,38.63
2022-12-20T16:48:53.254Z,35.93
2022-12-20T16:51:28.537Z,28.97
2022-12-20T16:56:47.941Z,33.63
2022-12-20T16:59:20.178Z,35.87
2022-12-20T17:01:51.434Z,33.07
2022-12-20T17:04:20.632Z,37.43
2022-12-20T17:06:50.417Z,29.73
2022-12-20T17:12:17.030Z,32.27
2022-12-20T17:14:45.473Z,29.10
2022-12-20T17:17:13.671Z,32.50
2022-12-20T17:19:41.716Z,34.33
2022-12-20T17:22:24.116Z,31.60
2022-12-20T17:24:52.745Z,31.77
2022-12-20T17:27:21.592Z,30.90
2022-12-20T17:29:50.828Z,30.63
2022-12-20T17:32:22.650Z,31.93
2022-12-20T17:34:51.704Z,33.67
2022-12-20T17:37:22.509Z,37.60
2022-12-20T17:39:51.319Z,32.67
2022-12-20T17:42:20.748Z,32.77
2022-12-20T17:44:52.310Z,33.23
2022-12-20T17:47:21.354Z,29.70
2022-12-20T17:49:50.853Z,29.67
2022-12-20T17:55:02.917Z,31.37
2022-12-20T17:57:31.686Z,28.47
2022-12-20T17:59:59.984Z,28.30
2022-12-20T18:02:29.498Z,31.33
2022-12-20T18:04:57.887Z,26.60
2022-12-20T18:07:26.307Z,30.63
2022-12-20T18:09:58.456Z,27.13
2022-12-20T18:12:34.000Z,31.90
2022-12-20T18:15:07.872Z,32.40
2022-12-20T18:17:36.416Z,25.90
2022-12-20T18:20:05.954Z,28.43
2022-12-20T18:22:35.454Z,27.83
2022-12-20T18:25:07.251Z,25.30
2022-12-20T18:27:42.629Z,31.20
2022-12-20T18:30:13.658Z,32.20
2022-12-20T18:32:42.553Z,43.10
2022-12-20T18:35:12.429Z,32.53
2022-12-20T18:37:40.621Z,30.83
2022-12-20T18:40:10.411Z,34.23
2022-12-20T18:42:40.040Z,32.87
2022-12-20T18:45:11.254Z,26.00
2022-12-20T18:47:39.822Z,27.70
2022-12-20T18:50:12.244Z,27.20
2022-12-20T18:52:43.183Z,26.67
2022-12-20T18:55:14.717Z,31.00
2022-12-20T18:57:44.145Z,33.60
2022-12-20T19:00:13.480Z,25.20
2022-12-20T19:02:42.211Z,30.20
2022-12-20T19:05:10.802Z,31.60
2022-12-20T19:07:38.853Z,33.47
2022-12-20T19:10:08.512Z,28.77
2022-12-20T19:13:05.965Z,36.60
2022-12-20T19:15:37.404Z,35.03
2022-12-20T19:18:07.079Z,31.20
2022-12-20T19:20:37.089Z,34.40
2022-12-20T19:23:05.891Z,32.57
2022-12-20T19:25:35.679Z,37.63
2022-12-20T19:28:04.626Z,35.27
2022-12-20T19:30:33.433Z,30.17
2022-12-20T19:33:04.214Z,30.53
2022-12-20T19:36:01.488Z,33.40
2022-12-20T19:38:21.450Z,30.07
2022-12-20T19:40:55.246Z,33.20
2022-12-20T19:43:24.066Z,33.73
2022-12-20T19:45:52.470Z,28.80
2022-12-20T19:48:22.402Z,31.70
2022-12-20T19:50:50.923Z,35.50
2022-12-20T19:53:19.221Z,37.97
2022-12-20T19:55:54.219Z,38.63
2022-12-20T19:58:22.453Z,37.87
2022-12-20T20:00:50.815Z,33.30
2022-12-20T20:03:20.517Z,43.73
2022-12-20T20:05:50.378Z,41.87
2022-12-20T20:08:19.130Z,37.27
2022-12-20T20:10:49.358Z,37.27
2022-12-20T20:13:20.417Z,41.23
2022-12-20T20:15:52.254Z,41.43
2022-12-20T20:18:20.875Z,36.93
2022-12-20T20:20:50.511Z,39.60
2022-12-20T20:23:19.212Z,35.87
2022-12-20T20:25:48.050Z,32.90
2022-12-20T20:28:16.633Z,41.10
2022-12-20T20:30:46.884Z,37.43
2022-12-20T20:33:15.311Z,45.23
2022-12-20T20:35:46.931Z,39.87
2022-12-20T20:38:20.920Z,36.40
2022-12-20T20:40:49.288Z,37.07
2022-12-20T20:43:17.909Z,36.63
2022-12-20T20:45:46.727Z,34.80
2022-12-20T20:48:15.230Z,41.20
2022-12-20T20:50:44.620Z,37.97
2022-12-20T20:53:13.429Z,36.50
2022-12-20T20:55:42.933Z,37.60
2022-12-20T20:58:10.987Z,36.17
2022-12-20T21:00:39.490Z,38.00
2022-12-20T21:03:07.822Z,41.23
2022-12-20T21:06:22.010Z,35.77
2022-12-20T21:08:24.508Z,35.60
2022-12-20T21:10:54.331Z,38.27
2022-12-20T21:13:22.648Z,29.70
2022-12-20T21:15:51.198Z,34.77
2022-12-20T21:18:19.755Z,34.00
2022-12-20T21:20:48.827Z,35.57
2022-12-20T21:23:17.309Z,43.73
2022-12-20T21:25:45.268Z,39.03
2022-12-20T21:28:20.949Z,37.63
2022-12-20T21:30:50.019Z,36.37
2022-12-20T21:33:18.031Z,40.93
2022-12-20T21:35:51.701Z,39.07
2022-12-20T21:38:22.176Z,35.57
2022-12-20T21:40:50.124Z,37.10
2022-12-20T21:43:19.861Z,36.60
2022-12-20T21:45:51.622Z,33.80
2022-12-20T21:48:20.250Z,29.77
2022-12-20T21:50:48.212Z,28.20
2022-12-20T21:53:19.627Z,34.10
2022-12-20T21:55:48.026Z,34.87
2022-12-20T21:58:16.065Z,35.60
2022-12-20T22:00:50.913Z,36.47
2022-12-20T22:03:22.803Z,36.80
2022-12-20T22:05:52.615Z,35.30
2022-12-20T22:08:22.102Z,37.40
2022-12-20T22:10:50.929Z,31.17
2022-12-20T22:13:19.592Z,39.47
2022-12-20T22:15:51.288Z,35.53
2022-12-20T22:18:19.938Z,38.27
2022-12-20T22:20:48.115Z,35.60
2022-12-20T22:23:16.341Z,32.53
2022-12-20T22:25:45.490Z,35.83
2022-12-20T22:28:13.599Z,31.90
2022-12-20T22:30:42.786Z,34.50
2022-12-20T22:33:12.812Z,29.77
2022-12-20T22:35:41.395Z,35.83
2022-12-20T22:38:09.419Z,38.73
2022-12-20T22:40:38.081Z,32.90
2022-12-20T22:43:06.018Z,36.60
2022-12-20T22:45:34.650Z,42.10
2022-12-20T22:48:03.309Z,33.70
2022-12-20T22:50:33.147Z,38.50
2022-12-20T22:53:01.316Z,32.33
2022-12-20T22:55:29.902Z,40.63
2022-12-20T22:57:57.983Z,41.33
2022-12-20T23:00:33.120Z,41.40
2022-12-20T23:03:02.316Z,36.10
2022-12-20T23:05:30.480Z,40.63
2022-12-20T23:07:59.818Z,42.77
2022-12-20T23:10:45.891Z,46.57
2022-12-20T23:13:31.570Z,44.63
2022-12-20T23:16:00.051Z,42.23
2022-12-20T23:18:28.003Z,35.73
2022-12-20T23:21:14.198Z,42.40
2022-12-20T23:23:43.924Z,35.43
2022-12-20T23:26:12.320Z,40.03
2022-12-20T23:28:40.355Z,51.50
2022-12-20T23:31:09.530Z,43.33
2022-12-20T23:33:38.628Z,44.00
2022-12-20T23:36:07.627Z,45.90
2022-12-20T23:38:37.134Z,45.90
2022-12-20T23:41:10.441Z,44.97
2022-12-20T23:43:38.466Z,48.73
2022-12-20T23:46:08.701Z,50.83
2022-12-20T23:48:37.382Z,47.20
2022-12-20T23:51:06.515Z,43.17
2022-12-20T23:53:35.293Z,44.60
2022-12-20T23:56:06.114Z,44.27
2022-12-20T23:58:36.216Z,43.60
